sensor_id;sensor_type;location;lat;lon;timestamp;P1;durP1;ratioP1;P2;durP2;ratioP2
65162;SDS011;51751;55.714;37.436;2022-12-18T00:00:58;15.15;;;6.82;;
65162;SDS011;51751;55.714;37.436;2022-12-18T00:03:25;11.32;;;6.38;;
65162;SDS011;51751;55.714;37.436;2022-12-18T00:05:51;11.90;;;6.05;;
65162;SDS011;51751;55.714;37.436;2022-12-18T00:08:18;13.52;;;6.65;;
65162;SDS011;51751;55.714;37.436;2022-12-18T00:10:44;14.43;;;6.05;;
65162;SDS011;51751;55.714;37.436;2022-12-18T00:13:10;10.40;;;5.28;;
65162;SDS011;51751;55.714;37.436;2022-12-18T00:15:37;11.30;;;5.65;;
65162;SDS011;51751;55.714;37.436;2022-12-18T00:18:04;10.75;;;5.90;;
65162;SDS011;51751;55.714;37.436;2022-12-18T00:20:30;10.07;;;5.50;;
65162;SDS011;51751;55.714;37.436;2022-12-18T00:22:56;11.52;;;5.72;;
65162;SDS011;51751;55.714;37.436;2022-12-18T00:25:22;8.10;;;4.85;;
65162;SDS011;51751;55.714;37.436;2022-12-18T00:27:48;12.30;;;5.25;;
65162;SDS011;51751;55.714;37.436;2022-12-18T00:30:14;9.10;;;5.40;;
65162;SDS011;51751;55.714;37.436;2022-12-18T00:32:40;11.00;;;5.57;;
65162;SDS011;51751;55.714;37.436;2022-12-18T00:35:06;12.20;;;5.25;;
65162;SDS011;51751;55.714;37.436;2022-12-18T00:37:35;8.73;;;5.32;;
65162;SDS011;51751;55.714;37.436;2022-12-18T00:40:01;8.45;;;4.70;;
65162;SDS011;51751;55.714;37.436;2022-12-18T00:42:30;9.50;;;5.40;;
65162;SDS011;51751;55.714;37.436;2022-12-18T00:45:15;8.57;;;4.72;;
65162;SDS011;51751;55.714;37.436;2022-12-18T00:47:40;10.57;;;5.20;;
65162;SDS011;51751;55.714;37.436;2022-12-18T00:50:07;9.70;;;5.47;;
65162;SDS011;51751;55.714;37.436;2022-12-18T00:52:34;7.97;;;4.68;;
65162;SDS011;51751;55.714;37.436;2022-12-18T00:55:00;10.23;;;5.60;;
65162;SDS011;51751;55.714;37.436;2022-12-18T00:57:26;9.77;;;5.10;;
65162;SDS011;51751;55.714;37.436;2022-12-18T00:59:52;9.98;;;5.30;;
65162;SDS011;51751;55.714;37.436;2022-12-18T01:02:17;10.80;;;5.20;;
65162;SDS011;51751;55.714;37.436;2022-12-18T01:04:43;9.25;;;5.10;;
65162;SDS011;51751;55.714;37.436;2022-12-18T01:07:09;6.65;;;4.15;;
65162;SDS011;51751;55.714;37.436;2022-12-18T01:09:38;8.88;;;5.13;;
65162;SDS011;51751;55.714;37.436;2022-12-18T01:12:04;9.35;;;4.88;;
65162;SDS011;51751;55.714;37.436;2022-12-18T01:14:31;7.38;;;4.70;;
65162;SDS011;51751;55.714;37.436;2022-12-18T01:16:58;9.45;;;4.75;;
65162;SDS011;51751;55.714;37.436;2022-12-18T01:19:31;8.48;;;4.75;;
65162;SDS011;51751;55.714;37.436;2022-12-18T01:21:58;6.55;;;4.20;;
65162;SDS011;51751;55.714;37.436;2022-12-18T01:24:24;8.68;;;5.18;;
65162;SDS011;51751;55.714;37.436;2022-12-18T01:27:08;8.07;;;4.93;;
65162;SDS011;51751;55.714;37.436;2022-12-18T01:29:36;9.38;;;5.10;;
65162;SDS011;51751;55.714;37.436;2022-12-18T01:32:03;10.35;;;4.75;;
65162;SDS011;51751;55.714;37.436;2022-12-18T01:34:29;9.20;;;4.68;;
65162;SDS011;51751;55.714;37.436;2022-12-18T01:36:58;8.48;;;5.03;;
65162;SDS011;51751;55.714;37.436;2022-12-18T01:39:23;8.60;;;4.65;;
65162;SDS011;51751;55.714;37.436;2022-12-18T01:41:49;8.43;;;4.72;;
65162;SDS011;51751;55.714;37.436;2022-12-18T01:50:16;8.23;;;4.45;;
65162;SDS011;51751;55.714;37.436;2022-12-18T01:52:48;8.18;;;4.60;;
65162;SDS011;51751;55.714;37.436;2022-12-18T01:55:23;8.70;;;4.88;;
65162;SDS011;51751;55.714;37.436;2022-12-18T01:57:57;8.38;;;4.43;;
65162;SDS011;51751;55.714;37.436;2022-12-18T02:00:27;8.55;;;5.00;;
65162;SDS011;51751;55.714;37.436;2022-12-18T02:02:53;10.27;;;4.80;;
65162;SDS011;51751;55.714;37.436;2022-12-18T02:05:40;7.93;;;4.90;;
65162;SDS011;51751;55.714;37.436;2022-12-18T02:19:27;9.15;;;4.60;;
65162;SDS011;51751;55.714;37.436;2022-12-18T02:24:57;8.18;;;4.00;;
65162;SDS011;51751;55.714;37.436;2022-12-18T02:27:29;6.95;;;4.53;;
65162;SDS011;51751;55.714;37.436;2022-12-18T02:29:57;6.53;;;3.70;;
65162;SDS011;51751;55.714;37.436;2022-12-18T02:32:27;9.18;;;4.65;;
65162;SDS011;51751;55.714;37.436;2022-12-18T02:34:56;8.52;;;4.82;;
65162;SDS011;51751;55.714;37.436;2022-12-18T02:37:32;7.75;;;4.35;;
65162;SDS011;51751;55.714;37.436;2022-12-18T02:40:02;8.27;;;4.47;;
65162;SDS011;51751;55.714;37.436;2022-12-18T02:42:31;8.80;;;4.10;;
65162;SDS011;51751;55.714;37.436;2022-12-18T02:44:59;7.70;;;4.53;;
65162;SDS011;51751;55.714;37.436;2022-12-18T02:47:31;8.85;;;4.53;;
65162;SDS011;51751;55.714;37.436;2022-12-18T02:53:04;7.43;;;4.15;;
65162;SDS011;51751;55.714;37.436;2022-12-18T02:58:11;8.13;;;4.30;;
65162;SDS011;51751;55.714;37.436;2022-12-18T03:03:43;8.25;;;4.28;;
65162;SDS011;51751;55.714;37.436;2022-12-18T03:06:35;6.50;;;3.97;;
65162;SDS011;51751;55.714;37.436;2022-12-18T03:09:01;8.40;;;4.28;;
65162;SDS011;51751;55.714;37.436;2022-12-18T03:11:33;9.80;;;4.63;;
65162;SDS011;51751;55.714;37.436;2022-12-18T03:14:19;7.93;;;4.13;;
65162;SDS011;51751;55.714;37.436;2022-12-18T03:16:48;8.18;;;4.60;;
65162;SDS011;51751;55.714;37.436;2022-12-18T03:19:16;8.77;;;4.38;;
65162;SDS011;51751;55.714;37.436;2022-12-18T03:21:47;9.07;;;4.47;;
65162;SDS011;51751;55.714;37.436;2022-12-18T03:24:17;7.10;;;4.28;;
65162;SDS011;51751;55.714;37.436;2022-12-18T03:26:46;6.13;;;3.92;;
65162;SDS011;51751;55.714;37.436;2022-12-18T03:29:36;10.60;;;4.47;;
65162;SDS011;51751;55.714;37.436;2022-12-18T03:32:12;6.43;;;3.70;;
65162;SDS011;51751;55.714;37.436;2022-12-18T03:34:44;6.13;;;3.50;;
65162;SDS011;51751;55.714;37.436;2022-12-18T03:37:13;6.72;;;3.67;;
65162;SDS011;51751;55.714;37.436;2022-12-18T03:39:40;6.55;;;3.78;;
65162;SDS011;51751;55.714;37.436;2022-12-18T03:42:18;6.15;;;3.88;;
65162;SDS011;51751;55.714;37.436;2022-12-18T03:47:55;7.75;;;4.10;;
65162;SDS011;51751;55.714;37.436;2022-12-18T03:50:39;8.75;;;4.40;;
65162;SDS011;51751;55.714;37.436;2022-12-18T03:53:20;6.93;;;3.80;;
65162;SDS011;51751;55.714;37.436;2022-12-18T03:56:02;8.02;;;3.95;;
65162;SDS011;51751;55.714;37.436;2022-12-18T04:01:14;7.45;;;3.83;;
65162;SDS011;51751;55.714;37.436;2022-12-18T04:03:43;5.93;;;3.72;;
65162;SDS011;51751;55.714;37.436;2022-12-18T04:06:10;7.57;;;3.90;;
65162;SDS011;51751;55.714;37.436;2022-12-18T04:08:40;6.68;;;3.42;;
65162;SDS011;51751;55.714;37.436;2022-12-18T04:11:09;5.93;;;3.55;;
65162;SDS011;51751;55.714;37.436;2022-12-18T04:13:37;7.13;;;4.10;;
65162;SDS011;51751;55.714;37.436;2022-12-18T04:18:56;5.50;;;2.92;;
65162;SDS011;51751;55.714;37.436;2022-12-18T04:21:24;6.57;;;3.90;;
65162;SDS011;51751;55.714;37.436;2022-12-18T04:23:51;6.82;;;4.00;;
65162;SDS011;51751;55.714;37.436;2022-12-18T04:26:23;6.72;;;3.92;;
65162;SDS011;51751;55.714;37.436;2022-12-18T04:29:07;6.18;;;3.70;;
65162;SDS011;51751;55.714;37.436;2022-12-18T04:31:36;7.63;;;3.72;;
65162;SDS011;51751;55.714;37.436;2022-12-18T04:34:03;6.93;;;3.65;;
65162;SDS011;51751;55.714;37.436;2022-12-18T04:36:35;7.80;;;4.00;;
65162;SDS011;51751;55.714;37.436;2022-12-18T04:39:02;6.38;;;3.67;;
65162;SDS011;51751;55.714;37.436;2022-12-18T04:41:29;5.40;;;3.42;;
65162;SDS011;51751;55.714;37.436;2022-12-18T04:43:55;6.40;;;3.72;;
65162;SDS011;51751;55.714;37.436;2022-12-18T04:46:27;8.23;;;4.15;;
65162;SDS011;51751;55.714;37.436;2022-12-18T04:48:53;5.65;;;3.38;;
65162;SDS011;51751;55.714;37.436;2022-12-18T04:51:22;4.82;;;3.15;;
65162;SDS011;51751;55.714;37.436;2022-12-18T04:53:47;6.47;;;3.75;;
65162;SDS011;51751;55.714;37.436;2022-12-18T04:56:14;6.70;;;3.80;;
65162;SDS011;51751;55.714;37.436;2022-12-18T04:58:41;6.32;;;3.83;;
65162;SDS011;51751;55.714;37.436;2022-12-18T05:01:09;7.18;;;3.60;;
65162;SDS011;51751;55.714;37.436;2022-12-18T05:03:36;7.18;;;3.83;;
65162;SDS011;51751;55.714;37.436;2022-12-18T05:06:03;6.95;;;4.00;;
65162;SDS011;51751;55.714;37.436;2022-12-18T05:08:29;5.95;;;3.78;;
65162;SDS011;51751;55.714;37.436;2022-12-18T05:11:03;12.38;;;4.07;;
65162;SDS011;51751;55.714;37.436;2022-12-18T05:13:34;7.50;;;4.07;;
65162;SDS011;51751;55.714;37.436;2022-12-18T05:16:01;7.68;;;4.15;;
65162;SDS011;51751;55.714;37.436;2022-12-18T05:18:28;6.45;;;3.70;;
65162;SDS011;51751;55.714;37.436;2022-12-18T05:20:54;6.50;;;3.22;;
65162;SDS011;51751;55.714;37.436;2022-12-18T05:23:21;6.72;;;3.95;;
65162;SDS011;51751;55.714;37.436;2022-12-18T05:25:51;6.70;;;3.97;;
65162;SDS011;51751;55.714;37.436;2022-12-18T05:28:21;9.13;;;3.83;;
65162;SDS011;51751;55.714;37.436;2022-12-18T05:30:49;8.35;;;4.00;;
65162;SDS011;51751;55.714;37.436;2022-12-18T05:33:16;11.30;;;4.20;;
65162;SDS011;51751;55.714;37.436;2022-12-18T05:35:43;7.30;;;3.90;;
65162;SDS011;51751;55.714;37.436;2022-12-18T05:38:12;8.98;;;4.20;;
65162;SDS011;51751;55.714;37.436;2022-12-18T05:40:40;7.47;;;3.63;;
65162;SDS011;51751;55.714;37.436;2022-12-18T05:43:07;6.47;;;3.50;;
65162;SDS011;51751;55.714;37.436;2022-12-18T05:45:37;7.63;;;4.13;;
65162;SDS011;51751;55.714;37.436;2022-12-18T05:48:03;6.25;;;3.80;;
65162;SDS011;51751;55.714;37.436;2022-12-18T05:50:30;6.82;;;3.97;;
65162;SDS011;51751;55.714;37.436;2022-12-18T05:53:03;6.13;;;3.55;;
65162;SDS011;51751;55.714;37.436;2022-12-18T05:55:37;6.50;;;4.03;;
65162;SDS011;51751;55.714;37.436;2022-12-18T05:58:05;6.78;;;3.92;;
65162;SDS011;51751;55.714;37.436;2022-12-18T06:00:32;7.07;;;3.95;;
65162;SDS011;51751;55.714;37.436;2022-12-18T06:03:03;7.60;;;4.10;;
65162;SDS011;51751;55.714;37.436;2022-12-18T06:05:29;10.40;;;4.18;;
65162;SDS011;51751;55.714;37.436;2022-12-18T06:07:55;8.05;;;4.18;;
65162;SDS011;51751;55.714;37.436;2022-12-18T06:10:26;8.38;;;4.18;;
65162;SDS011;51751;55.714;37.436;2022-12-18T06:12:52;6.40;;;4.00;;
65162;SDS011;51751;55.714;37.436;2022-12-18T06:15:18;7.85;;;3.78;;
65162;SDS011;51751;55.714;37.436;2022-12-18T06:17:44;6.00;;;3.88;;
65162;SDS011;51751;55.714;37.436;2022-12-18T06:20:12;6.50;;;3.92;;
65162;SDS011;51751;55.714;37.436;2022-12-18T06:22:38;6.35;;;3.80;;
65162;SDS011;51751;55.714;37.436;2022-12-18T06:25:04;7.18;;;3.50;;
65162;SDS011;51751;55.714;37.436;2022-12-18T06:27:31;8.45;;;3.80;;
65162;SDS011;51751;55.714;37.436;2022-12-18T06:29:59;7.65;;;3.80;;
65162;SDS011;51751;55.714;37.436;2022-12-18T06:32:25;6.38;;;3.90;;
65162;SDS011;51751;55.714;37.436;2022-12-18T06:34:52;6.43;;;3.80;;
65162;SDS011;51751;55.714;37.436;2022-12-18T06:37:19;6.28;;;3.67;;
65162;SDS011;51751;55.714;37.436;2022-12-18T06:39:45;8.20;;;4.50;;
65162;SDS011;51751;55.714;37.436;2022-12-18T06:42:13;7.28;;;3.90;;
65162;SDS011;51751;55.714;37.436;2022-12-18T06:44:39;6.68;;;3.65;;
65162;SDS011;51751;55.714;37.436;2022-12-18T06:47:07;6.45;;;3.95;;
65162;SDS011;51751;55.714;37.436;2022-12-18T06:49:33;6.78;;;3.80;;
65162;SDS011;51751;55.714;37.436;2022-12-18T06:52:04;7.30;;;4.03;;
65162;SDS011;51751;55.714;37.436;2022-12-18T06:54:30;7.70;;;4.00;;
65162;SDS011;51751;55.714;37.436;2022-12-18T06:56:56;6.38;;;3.70;;
65162;SDS011;51751;55.714;37.436;2022-12-18T06:59:22;6.38;;;3.50;;
65162;SDS011;51751;55.714;37.436;2022-12-18T07:01:48;7.25;;;3.80;;
65162;SDS011;51751;55.714;37.436;2022-12-18T07:04:14;5.50;;;3.47;;
65162;SDS011;51751;55.714;37.436;2022-12-18T07:06:42;7.63;;;4.13;;
65162;SDS011;51751;55.714;37.436;2022-12-18T07:09:08;7.90;;;4.40;;
65162;SDS011;51751;55.714;37.436;2022-12-18T07:11:34;5.63;;;3.33;;
65162;SDS011;51751;55.714;37.436;2022-12-18T07:14:00;8.02;;;3.78;;
65162;SDS011;51751;55.714;37.436;2022-12-18T07:16:26;6.00;;;3.65;;
65162;SDS011;51751;55.714;37.436;2022-12-18T07:18:54;6.15;;;3.80;;
65162;SDS011;51751;55.714;37.436;2022-12-18T07:21:23;6.20;;;3.65;;
65162;SDS011;51751;55.714;37.436;2022-12-18T07:23:50;7.35;;;3.97;;
65162;SDS011;51751;55.714;37.436;2022-12-18T07:26:17;7.93;;;4.28;;
65162;SDS011;51751;55.714;37.436;2022-12-18T07:28:44;6.43;;;3.53;;
65162;SDS011;51751;55.714;37.436;2022-12-18T07:31:14;6.40;;;3.60;;
65162;SDS011;51751;55.714;37.436;2022-12-18T07:33:41;7.13;;;3.72;;
65162;SDS011;51751;55.714;37.436;2022-12-18T07:36:07;9.23;;;4.13;;
65162;SDS011;51751;55.714;37.436;2022-12-18T07:38:35;7.22;;;4.03;;
65162;SDS011;51751;55.714;37.436;2022-12-18T07:41:02;7.25;;;3.75;;
65162;SDS011;51751;55.714;37.436;2022-12-18T07:43:33;7.30;;;3.97;;
65162;SDS011;51751;55.714;37.436;2022-12-18T07:45:59;7.10;;;3.70;;
65162;SDS011;51751;55.714;37.436;2022-12-18T07:48:25;5.72;;;3.50;;
65162;SDS011;51751;55.714;37.436;2022-12-18T07:50:51;7.20;;;3.97;;
65162;SDS011;51751;55.714;37.436;2022-12-18T07:53:17;8.32;;;4.35;;
65162;SDS011;51751;55.714;37.436;2022-12-18T07:55:46;6.53;;;4.13;;
65162;SDS011;51751;55.714;37.436;2022-12-18T07:58:15;8.10;;;3.65;;
65162;SDS011;51751;55.714;37.436;2022-12-18T08:00:44;10.05;;;4.38;;
65162;SDS011;51751;55.714;37.436;2022-12-18T08:03:20;7.60;;;4.45;;
65162;SDS011;51751;55.714;37.436;2022-12-18T08:06:11;6.45;;;3.42;;
65162;SDS011;51751;55.714;37.436;2022-12-18T08:08:37;6.00;;;3.50;;
65162;SDS011;51751;55.714;37.436;2022-12-18T08:11:03;6.78;;;3.42;;
65162;SDS011;51751;55.714;37.436;2022-12-18T08:13:29;6.30;;;3.45;;
65162;SDS011;51751;55.714;37.436;2022-12-18T08:15:56;7.65;;;4.32;;
65162;SDS011;51751;55.714;37.436;2022-12-18T08:18:25;7.20;;;3.58;;
65162;SDS011;51751;55.714;37.436;2022-12-18T08:20:54;6.63;;;3.75;;
65162;SDS011;51751;55.714;37.436;2022-12-18T08:23:39;7.95;;;4.25;;
65162;SDS011;51751;55.714;37.436;2022-12-18T08:26:07;7.15;;;4.10;;
65162;SDS011;51751;55.714;37.436;2022-12-18T08:28:33;5.50;;;3.35;;
65162;SDS011;51751;55.714;37.436;2022-12-18T08:30:59;6.28;;;3.60;;
65162;SDS011;51751;55.714;37.436;2022-12-18T08:33:26;5.90;;;3.47;;
65162;SDS011;51751;55.714;37.436;2022-12-18T08:35:52;7.30;;;3.85;;
65162;SDS011;51751;55.714;37.436;2022-12-18T08:38:19;4.88;;;3.00;;
65162;SDS011;51751;55.714;37.436;2022-12-18T08:40:44;6.07;;;3.60;;
65162;SDS011;51751;55.714;37.436;2022-12-18T08:43:10;6.70;;;3.63;;
65162;SDS011;51751;55.714;37.436;2022-12-18T08:45:55;8.85;;;4.47;;
65162;SDS011;51751;55.714;37.436;2022-12-18T08:48:21;6.72;;;4.00;;
65162;SDS011;51751;55.714;37.436;2022-12-18T08:50:54;6.40;;;3.90;;
65162;SDS011;51751;55.714;37.436;2022-12-18T08:53:20;5.63;;;3.20;;
65162;SDS011;51751;55.714;37.436;2022-12-18T08:55:47;7.60;;;3.65;;
65162;SDS011;51751;55.714;37.436;2022-12-18T08:58:13;6.40;;;3.60;;
65162;SDS011;51751;55.714;37.436;2022-12-18T09:00:39;7.30;;;3.42;;
65162;SDS011;51751;55.714;37.436;2022-12-18T09:03:05;6.45;;;3.50;;
65162;SDS011;51751;55.714;37.436;2022-12-18T09:05:33;5.63;;;3.40;;
65162;SDS011;51751;55.714;37.436;2022-12-18T09:07:59;7.45;;;3.58;;
65162;SDS011;51751;55.714;37.436;2022-12-18T09:10:25;7.70;;;3.40;;
65162;SDS011;51751;55.714;37.436;2022-12-18T09:12:51;6.00;;;3.47;;
65162;SDS011;51751;55.714;37.436;2022-12-18T09:15:17;5.85;;;3.38;;
65162;SDS011;51751;55.714;37.436;2022-12-18T09:17:43;5.90;;;3.53;;
65162;SDS011;51751;55.714;37.436;2022-12-18T09:20:09;6.90;;;3.50;;
65162;SDS011;51751;55.714;37.436;2022-12-18T09:22:38;11.38;;;3.72;;
65162;SDS011;51751;55.714;37.436;2022-12-18T09:25:04;6.72;;;3.95;;
65162;SDS011;51751;55.714;37.436;2022-12-18T09:27:33;6.65;;;4.10;;
65162;SDS011;51751;55.714;37.436;2022-12-18T09:29:59;9.45;;;3.80;;
65162;SDS011;51751;55.714;37.436;2022-12-18T09:32:28;8.20;;;4.15;;
65162;SDS011;51751;55.714;37.436;2022-12-18T09:34:54;7.50;;;3.55;;
65162;SDS011;51751;55.714;37.436;2022-12-18T09:37:20;6.05;;;3.38;;
65162;SDS011;51751;55.714;37.436;2022-12-18T09:39:46;5.78;;;3.28;;
65162;SDS011;51751;55.714;37.436;2022-12-18T09:42:13;6.32;;;3.35;;
65162;SDS011;51751;55.714;37.436;2022-12-18T09:44:46;6.85;;;3.38;;
65162;SDS011;51751;55.714;37.436;2022-12-18T09:47:20;9.77;;;3.30;;
65162;SDS011;51751;55.714;37.436;2022-12-18T09:50:01;5.53;;;3.30;;
65162;SDS011;51751;55.714;37.436;2022-12-18T09:52:37;7.30;;;3.05;;
65162;SDS011;51751;55.714;37.436;2022-12-18T09:55:37;5.57;;;3.25;;
65162;SDS011;51751;55.714;37.436;2022-12-18T09:58:17;8.05;;;3.60;;
65162;SDS011;51751;55.714;37.436;2022-12-18T10:01:15;6.80;;;3.15;;
65162;SDS011;51751;55.714;37.436;2022-12-18T10:03:48;6.53;;;3.17;;
65162;SDS011;51751;55.714;37.436;2022-12-18T10:06:22;5.70;;;3.47;;
65162;SDS011;51751;55.714;37.436;2022-12-18T10:08:56;4.97;;;3.15;;
65162;SDS011;51751;55.714;37.436;2022-12-18T10:12:02;5.53;;;3.15;;
65162;SDS011;51751;55.714;37.436;2022-12-18T10:20:20;5.57;;;3.03;;
65162;SDS011;51751;55.714;37.436;2022-12-18T10:28:35;5.25;;;3.17;;
65162;SDS011;51751;55.714;37.436;2022-12-18T10:31:06;5.18;;;3.30;;
65162;SDS011;51751;55.714;37.436;2022-12-18T10:33:33;5.70;;;3.22;;
65162;SDS011;51751;55.714;37.436;2022-12-18T10:35:59;5.07;;;2.95;;
65162;SDS011;51751;55.714;37.436;2022-12-18T10:38:29;5.68;;;3.20;;
65162;SDS011;51751;55.714;37.436;2022-12-18T10:43:47;5.72;;;2.70;;
65162;SDS011;51751;55.714;37.436;2022-12-18T10:51:18;5.50;;;2.90;;
65162;SDS011;51751;55.714;37.436;2022-12-18T10:54:04;5.93;;;3.22;;
65162;SDS011;51751;55.714;37.436;2022-12-18T10:59:52;10.43;;;3.15;;
65162;SDS011;51751;55.714;37.436;2022-12-18T11:02:28;5.10;;;2.92;;
65162;SDS011;51751;55.714;37.436;2022-12-18T11:05:01;5.28;;;2.85;;
65162;SDS011;51751;55.714;37.436;2022-12-18T11:07:47;6.40;;;3.20;;
65162;SDS011;51751;55.714;37.436;2022-12-18T11:10:16;4.60;;;2.92;;
65162;SDS011;51751;55.714;37.436;2022-12-18T11:12:44;4.28;;;2.80;;
65162;SDS011;51751;55.714;37.436;2022-12-18T11:15:19;5.05;;;2.92;;
65162;SDS011;51751;55.714;37.436;2022-12-18T11:17:58;5.95;;;2.95;;
65162;SDS011;51751;55.714;37.436;2022-12-18T11:20:31;4.38;;;2.90;;
65162;SDS011;51751;55.714;37.436;2022-12-18T11:23:03;5.20;;;2.97;;
65162;SDS011;51751;55.714;37.436;2022-12-18T11:25:36;6.68;;;3.20;;
65162;SDS011;51751;55.714;37.436;2022-12-18T11:28:24;7.05;;;3.08;;
65162;SDS011;51751;55.714;37.436;2022-12-18T11:31:09;9.70;;;3.38;;
65162;SDS011;51751;55.714;37.436;2022-12-18T11:33:37;6.15;;;2.97;;
65162;SDS011;51751;55.714;37.436;2022-12-18T11:36:06;6.85;;;3.38;;
65162;SDS011;51751;55.714;37.436;2022-12-18T11:38:40;5.18;;;3.10;;
65162;SDS011;51751;55.714;37.436;2022-12-18T11:43:45;4.50;;;2.60;;
65162;SDS011;51751;55.714;37.436;2022-12-18T11:49:03;6.55;;;3.00;;
65162;SDS011;51751;55.714;37.436;2022-12-18T11:52:15;4.90;;;2.75;;
65162;SDS011;51751;55.714;37.436;2022-12-18T11:54:46;5.05;;;2.50;;
65162;SDS011;51751;55.714;37.436;2022-12-18T11:57:20;5.00;;;2.40;;
65162;SDS011;51751;55.714;37.436;2022-12-18T12:02:56;5.28;;;3.08;;
65162;SDS011;51751;55.714;37.436;2022-12-18T12:08:28;4.30;;;2.70;;
65162;SDS011;51751;55.714;37.436;2022-12-18T12:17:13;4.03;;;2.20;;
65162;SDS011;51751;55.714;37.436;2022-12-18T12:19:55;5.03;;;2.70;;
65162;SDS011;51751;55.714;37.436;2022-12-18T12:34:25;4.00;;;2.40;;
65162;SDS011;51751;55.714;37.436;2022-12-18T12:39:53;4.25;;;2.42;;
65162;SDS011;51751;55.714;37.436;2022-12-18T12:45:25;4.63;;;2.17;;
65162;SDS011;51751;55.714;37.436;2022-12-18T12:47:56;4.60;;;2.40;;
65162;SDS011;51751;55.714;37.436;2022-12-18T12:50:27;3.20;;;2.25;;
65162;SDS011;51751;55.714;37.436;2022-12-18T12:52:54;4.78;;;2.90;;
65162;SDS011;51751;55.714;37.436;2022-12-18T12:55:25;5.38;;;2.70;;
65162;SDS011;51751;55.714;37.436;2022-12-18T12:58:02;4.18;;;2.55;;
65162;SDS011;51751;55.714;37.436;2022-12-18T13:00:36;6.45;;;2.58;;
65162;SDS011;51751;55.714;37.436;2022-12-18T13:05:40;5.50;;;2.45;;
65162;SDS011;51751;55.714;37.436;2022-12-18T13:08:10;5.30;;;2.90;;
65162;SDS011;51751;55.714;37.436;2022-12-18T13:10:48;6.05;;;2.85;;
65162;SDS011;51751;55.714;37.436;2022-12-18T13:13:47;5.72;;;3.10;;
65162;SDS011;51751;55.714;37.436;2022-12-18T13:16:16;7.53;;;3.13;;
65162;SDS011;51751;55.714;37.436;2022-12-18T13:18:48;6.57;;;3.05;;
65162;SDS011;51751;55.714;37.436;2022-12-18T13:21:28;7.82;;;3.30;;
65162;SDS011;51751;55.714;37.436;2022-12-18T13:24:15;9.95;;;4.07;;
65162;SDS011;51751;55.714;37.436;2022-12-18T13:26:46;8.40;;;3.88;;
65162;SDS011;51751;55.714;37.436;2022-12-18T13:29:12;11.05;;;4.57;;
65162;SDS011;51751;55.714;37.436;2022-12-18T13:32:21;9.43;;;4.07;;
65162;SDS011;51751;55.714;37.436;2022-12-18T13:34:48;9.02;;;4.38;;
65162;SDS011;51751;55.714;37.436;2022-12-18T13:51:50;9.70;;;4.50;;
65162;SDS011;51751;55.714;37.436;2022-12-18T13:54:19;11.95;;;4.60;;
65162;SDS011;51751;55.714;37.436;2022-12-18T13:56:51;10.90;;;4.90;;
65162;SDS011;51751;55.714;37.436;2022-12-18T13:59:19;12.43;;;4.70;;
65162;SDS011;51751;55.714;37.436;2022-12-18T14:02:15;10.10;;;4.60;;
65162;SDS011;51751;55.714;37.436;2022-12-18T14:04:44;9.60;;;4.10;;
65162;SDS011;51751;55.714;37.436;2022-12-18T14:07:23;8.85;;;4.47;;
65162;SDS011;51751;55.714;37.436;2022-12-18T14:09:54;10.43;;;4.45;;
65162;SDS011;51751;55.714;37.436;2022-12-18T14:13:03;7.65;;;3.83;;
65162;SDS011;51751;55.714;37.436;2022-12-18T14:15:35;10.98;;;4.13;;
65162;SDS011;51751;55.714;37.436;2022-12-18T14:21:26;9.40;;;3.78;;
65162;SDS011;51751;55.714;37.436;2022-12-18T14:26:35;7.70;;;3.75;;
65162;SDS011;51751;55.714;37.436;2022-12-18T14:29:17;8.80;;;3.63;;
65162;SDS011;51751;55.714;37.436;2022-12-18T14:32:03;9.10;;;3.90;;
65162;SDS011;51751;55.714;37.436;2022-12-18T14:34:43;7.13;;;3.33;;
65162;SDS011;51751;55.714;37.436;2022-12-18T14:37:17;7.10;;;3.55;;
65162;SDS011;51751;55.714;37.436;2022-12-18T14:40:02;7.57;;;3.55;;
65162;SDS011;51751;55.714;37.436;2022-12-18T14:42:30;6.60;;;3.17;;
65162;SDS011;51751;55.714;37.436;2022-12-18T14:48:07;4.20;;;2.80;;
65162;SDS011;51751;55.714;37.436;2022-12-18T14:50:34;5.78;;;3.03;;
65162;SDS011;51751;55.714;37.436;2022-12-18T14:53:00;4.00;;;2.53;;
65162;SDS011;51751;55.714;37.436;2022-12-18T14:55:26;7.63;;;3.45;;
65162;SDS011;51751;55.714;37.436;2022-12-18T14:57:53;5.45;;;3.05;;
65162;SDS011;51751;55.714;37.436;2022-12-18T15:00:25;5.22;;;3.08;;
65162;SDS011;51751;55.714;37.436;2022-12-18T15:02:55;6.72;;;3.65;;
65162;SDS011;51751;55.714;37.436;2022-12-18T15:05:29;6.50;;;2.92;;
65162;SDS011;51751;55.714;37.436;2022-12-18T15:07:58;7.53;;;3.10;;
65162;SDS011;51751;55.714;37.436;2022-12-18T15:10:48;6.72;;;3.35;;
65162;SDS011;51751;55.714;37.436;2022-12-18T15:13:21;5.60;;;2.92;;
65162;SDS011;51751;55.714;37.436;2022-12-18T15:15:48;5.30;;;3.10;;
65162;SDS011;51751;55.714;37.436;2022-12-18T15:18:16;5.90;;;3.13;;
65162;SDS011;51751;55.714;37.436;2022-12-18T15:20:52;6.00;;;3.30;;
65162;SDS011;51751;55.714;37.436;2022-12-18T15:26:12;6.38;;;3.42;;
65162;SDS011;51751;55.714;37.436;2022-12-18T15:28:43;6.57;;;3.42;;
65162;SDS011;51751;55.714;37.436;2022-12-18T15:36:13;4.97;;;3.08;;
65162;SDS011;51751;55.714;37.436;2022-12-18T15:38:41;5.45;;;3.10;;
65162;SDS011;51751;55.714;37.436;2022-12-18T15:41:19;5.20;;;2.83;;
65162;SDS011;51751;55.714;37.436;2022-12-18T15:43:49;5.43;;;3.42;;
65162;SDS011;51751;55.714;37.436;2022-12-18T15:46:20;6.70;;;3.53;;
65162;SDS011;51751;55.714;37.436;2022-12-18T15:48:52;4.57;;;3.00;;
65162;SDS011;51751;55.714;37.436;2022-12-18T15:51:31;7.07;;;3.55;;
65162;SDS011;51751;55.714;37.436;2022-12-18T15:54:02;5.68;;;3.25;;
65162;SDS011;51751;55.714;37.436;2022-12-18T15:56:30;5.90;;;3.13;;
65162;SDS011;51751;55.714;37.436;2022-12-18T15:59:18;5.32;;;3.05;;
65162;SDS011;51751;55.714;37.436;2022-12-18T16:01:49;9.07;;;3.50;;
65162;SDS011;51751;55.714;37.436;2022-12-18T16:04:19;6.22;;;3.28;;
65162;SDS011;51751;55.714;37.436;2022-12-18T16:06:50;5.57;;;3.20;;
65162;SDS011;51751;55.714;37.436;2022-12-18T16:09:17;5.40;;;3.35;;
65162;SDS011;51751;55.714;37.436;2022-12-18T16:11:45;6.45;;;3.13;;
65162;SDS011;51751;55.714;37.436;2022-12-18T16:14:17;5.60;;;3.25;;
65162;SDS011;51751;55.714;37.436;2022-12-18T16:16:55;9.05;;;3.83;;
65162;SDS011;51751;55.714;37.436;2022-12-18T16:19:28;5.45;;;3.42;;
65162;SDS011;51751;55.714;37.436;2022-12-18T16:21:56;8.18;;;3.40;;
65162;SDS011;51751;55.714;37.436;2022-12-18T16:24:26;5.25;;;3.20;;
65162;SDS011;51751;55.714;37.436;2022-12-18T16:26:54;5.50;;;3.30;;
65162;SDS011;51751;55.714;37.436;2022-12-18T16:29:25;7.80;;;3.45;;
65162;SDS011;51751;55.714;37.436;2022-12-18T16:31:58;6.65;;;3.60;;
65162;SDS011;51751;55.714;37.436;2022-12-18T16:37:00;5.90;;;3.60;;
65162;SDS011;51751;55.714;37.436;2022-12-18T16:39:32;7.15;;;3.65;;
65162;SDS011;51751;55.714;37.436;2022-12-18T16:42:06;6.40;;;3.60;;
65162;SDS011;51751;55.714;37.436;2022-12-18T16:44:44;6.97;;;3.60;;
65162;SDS011;51751;55.714;37.436;2022-12-18T16:47:12;5.55;;;3.30;;
65162;SDS011;51751;55.714;37.436;2022-12-18T16:49:38;6.13;;;3.58;;
65162;SDS011;51751;55.714;37.436;2022-12-18T16:52:06;6.45;;;3.38;;
65162;SDS011;51751;55.714;37.436;2022-12-18T16:54:35;7.63;;;3.50;;
65162;SDS011;51751;55.714;37.436;2022-12-18T16:57:05;5.75;;;3.22;;
65162;SDS011;51751;55.714;37.436;2022-12-18T16:59:41;6.53;;;3.28;;
65162;SDS011;51751;55.714;37.436;2022-12-18T17:02:13;6.85;;;3.38;;
65162;SDS011;51751;55.714;37.436;2022-12-18T17:04:44;7.55;;;4.10;;
65162;SDS011;51751;55.714;37.436;2022-12-18T17:07:10;5.32;;;3.08;;